Time;durP1;ratioP1;P1;durP2;ratioP2;P2;SDS_P1;SDS_P2;PMS_P1;PMS_P2;Temp;Humidity;BMP_temperature;BMP_pressure;BME280_temperature;BME280_humidity;BME280_pressure;Samples;Min_cycle;Max_cycle;Signal;HPM_P1;HPM_P2
2021/09/29 00:01:19;;;;;;;26.30;19.75;;;;;;;;;;5013146;28;20113;-47
2021/09/29 00:03:45;;;;;;;18.15;15.73;;;;;;;;;;5007224;28;20038;-52
2021/09/29 00:06:11;;;;;;;65.55;37.83;;;;;;;;;;5002875;28;20018;-40
2021/09/29 00:08:37;;;;;;;33.17;20.80;;;;;;;;;;4993930;28;20027;-39
2021/09/29 00:11:04;;;;;;;26.05;18.65;;;;;;;;;;4993405;28;20081;-46
2021/09/29 00:13:30;;;;;;;30.73;21.73;;;;;;;;;;4993955;28;20050;-45
2021/09/29 00:15:56;;;;;;;42.83;25.73;;;;;;;;;;4995639;28;20022;-43
2021/09/29 00:18:23;;;;;;;26.25;17.58;;;;;;;;;;4995224;28;20080;-43
2021/09/29 00:20:49;;;;;;;38.53;25.15;;;;;;;;;;4995087;28;20474;-52
2021/09/29 00:23:18;;;;;;;33.28;25.02;;;;;;;;;;4995528;28;20042;-44
2021/09/29 00:25:44;;;;;;;25.95;17.50;;;;;;;;;;4995306;28;20014;-44
2021/09/29 00:28:10;;;;;;;28.45;21.13;;;;;;;;;;4995126;28;20058;-44
2021/09/29 00:33:25;;;;;;;30.90;23.35;;;;;;;;;;4916026;29;20096;-45
2021/09/29 00:35:54;;;;;;;34.33;24.48;;;;;;;;;;4915854;29;20071;-42
2021/09/29 00:38:20;;;;;;;24.83;18.52;;;;;;;;;;4916265;29;20092;-46
2021/09/29 00:40:48;;;;;;;30.48;18.85;;;;;;;;;;4916254;29;20028;-42
2021/09/29 00:43:14;;;;;;;45.72;28.52;;;;;;;;;;4916150;29;20036;-42
2021/09/29 00:45:40;;;;;;;26.15;19.67;;;;;;;;;;4916165;29;20111;-44
2021/09/29 00:48:06;;;;;;;23.58;18.70;;;;;;;;;;4916092;29;20089;-46
2021/09/29 00:50:36;;;;;;;27.88;21.42;;;;;;;;;;4915987;29;20488;-42
2021/09/29 00:53:03;;;;;;;67.45;42.83;;;;;;;;;;4915991;29;20039;-42
2021/09/29 00:55:29;;;;;;;39.10;25.42;;;;;;;;;;4915911;29;20548;-45
2021/09/29 00:57:55;;;;;;;19.35;15.30;;;;;;;;;;4915655;29;20509;-42
2021/09/29 01:00:22;;;;;;;21.52;13.27;;;;;;;;;;4915802;29;20032;-43
2021/09/29 01:02:48;;;;;;;25.42;16.58;;;;;;;;;;4915845;29;20028;-43
2021/09/29 01:05:14;;;;;;;13.02;11.38;;;;;;;;;;4915678;29;20547;-43
2021/09/29 01:08:00;;;;;;;23.45;17.50;;;;;;;;;;4915909;29;20036;-41
2021/09/29 01:10:37;;;;;;;18.90;13.85;;;;;;;;;;4944801;28;20031;-41
2021/09/29 01:13:03;;;;;;;16.73;13.25;;;;;;;;;;4974946;28;20484;-42
2021/09/29 01:15:31;;;;;;;22.40;10.55;;;;;;;;;;4974775;28;20027;-42
2021/09/29 01:18:10;;;;;;;29.92;9.35;;;;;;;;;;4974077;28;20042;-42
2021/09/29 01:20:38;;;;;;;24.42;13.63;;;;;;;;;;4974951;28;20506;-44
2021/09/29 01:23:10;;;;;;;26.00;16.30;;;;;;;;;;4974880;28;20035;-48
2021/09/29 01:25:54;;;;;;;23.48;10.00;;;;;;;;;;4975015;28;20019;-42
2021/09/29 01:28:24;;;;;;;26.95;10.82;;;;;;;;;;4974797;28;20125;-42
2021/09/29 01:30:50;;;;;;;26.42;10.45;;;;;;;;;;4974904;28;20037;-41
2021/09/29 01:33:17;;;;;;;27.38;15.68;;;;;;;;;;4974688;28;20109;-42
2021/09/29 01:35:44;;;;;;;25.38;11.85;;;;;;;;;;4992679;28;20449;-42
2021/09/29 01:38:10;;;;;;;14.45;10.18;;;;;;;;;;4994225;28;20080;-42
2021/09/29 01:40:36;;;;;;;14.07;9.48;;;;;;;;;;4993991;28;20031;-44
2021/09/29 01:43:02;;;;;;;15.02;11.52;;;;;;;;;;4994046;28;20030;-42
2021/09/29 01:45:28;;;;;;;12.85;11.30;;;;;;;;;;4994089;28;20022;-44
2021/09/29 01:47:54;;;;;;;13.98;8.75;;;;;;;;;;4993898;28;20493;-42
2021/09/29 01:50:22;;;;;;;24.60;14.93;;;;;;;;;;4994085;28;20076;-42
2021/09/29 01:52:49;;;;;;;25.00;17.75;;;;;;;;;;4993839;28;20026;-42
2021/09/29 01:55:18;;;;;;;18.20;10.50;;;;;;;;;;4994046;28;20026;-42
2021/09/29 01:57:48;;;;;;;16.13;9.45;;;;;;;;;;4993752;28;20031;-42
2021/09/29 02:00:16;;;;;;;19.27;11.48;;;;;;;;;;4985982;28;20023;-41
2021/09/29 02:02:43;;;;;;;20.55;14.65;;;;;;;;;;4993900;28;20038;-42
2021/09/29 02:05:09;;;;;;;18.20;13.30;;;;;;;;;;4993535;28;20552;-43
2021/09/29 02:07:36;;;;;;;23.00;15.88;;;;;;;;;;4993817;28;20022;-42
2021/09/29 02:10:03;;;;;;;16.02;12.82;;;;;;;;;;4993694;28;20028;-43
2021/09/29 02:12:30;;;;;;;17.90;13.98;;;;;;;;;;4993849;28;20065;-43
2021/09/29 02:14:56;;;;;;;15.38;11.60;;;;;;;;;;4993962;28;20064;-41
2021/09/29 02:17:22;;;;;;;20.20;13.48;;;;;;;;;;4993908;28;20037;-42
2021/09/29 02:19:48;;;;;;;14.43;11.23;;;;;;;;;;4993965;28;20054;-42
2021/09/29 02:22:16;;;;;;;15.75;10.55;;;;;;;;;;4993671;28;20030;-41
2021/09/29 02:24:42;;;;;;;15.45;10.48;;;;;;;;;;4993663;28;20037;-42
2021/09/29 02:27:08;;;;;;;14.60;10.73;;;;;;;;;;4993600;28;20029;-42
2021/09/29 02:29:34;;;;;;;16.40;11.07;;;;;;;;;;4996719;28;20030;-42
2021/09/29 02:32:02;;;;;;;20.48;10.57;;;;;;;;;;4997732;28;20108;-43
2021/09/29 02:34:29;;;;;;;22.30;11.65;;;;;;;;;;4997312;28;20063;-42
2021/09/29 02:36:55;;;;;;;27.65;12.07;;;;;;;;;;4997296;28;20030;-44
2021/09/29 02:39:21;;;;;;;17.00;11.43;;;;;;;;;;4997267;28;20037;-44
2021/09/29 02:41:47;;;;;;;30.83;12.27;;;;;;;;;;4997103;28;20018;-44
2021/09/29 02:44:13;;;;;;;27.30;11.20;;;;;;;;;;4997373;28;20050;-43
2021/09/29 02:46:43;;;;;;;38.00;12.10;;;;;;;;;;4997332;28;20498;-44
2021/09/29 02:49:09;;;;;;;17.08;13.02;;;;;;;;;;4997203;28;20030;-45
2021/09/29 02:51:38;;;;;;;39.33;12.95;;;;;;;;;;4997064;28;20018;-43
2021/09/29 02:54:04;;;;;;;26.73;12.73;;;;;;;;;;4997232;28;20052;-43
2021/09/29 02:56:30;;;;;;;31.77;12.90;;;;;;;;;;4996698;28;20026;-43
2021/09/29 02:58:59;;;;;;;30.85;13.07;;;;;;;;;;4997066;28;20434;-43
2021/09/29 03:01:25;;;;;;;37.22;14.73;;;;;;;;;;4997105;28;20025;-43
2021/09/29 03:03:52;;;;;;;29.65;15.50;;;;;;;;;;4996889;28;20038;-43
2021/09/29 03:06:18;;;;;;;39.58;13.63;;;;;;;;;;4996660;28;20471;-43
2021/09/29 03:08:44;;;;;;;21.05;15.13;;;;;;;;;;4996806;28;20041;-43
2021/09/29 03:11:10;;;;;;;17.73;14.55;;;;;;;;;;4996857;28;20022;-44
2021/09/29 03:13:37;;;;;;;32.38;13.73;;;;;;;;;;4996959;28;20023;-45
2021/09/29 03:16:03;;;;;;;20.33;14.93;;;;;;;;;;4996677;28;20029;-42
2021/09/29 03:18:29;;;;;;;23.27;16.92;;;;;;;;;;4996700;28;20494;-44
2021/09/29 03:20:55;;;;;;;28.52;13.80;;;;;;;;;;4996622;28;20022;-44
2021/09/29 03:23:23;;;;;;;21.42;16.20;;;;;;;;;;4996653;28;20126;-43
2021/09/29 03:25:49;;;;;;;32.92;13.65;;;;;;;;;;4996813;28;20146;-43
2021/09/29 03:28:15;;;;;;;18.42;14.82;;;;;;;;;;4996513;28;20105;-43
2021/09/29 03:30:44;;;;;;;32.15;17.00;;;;;;;;;;4996369;28;20030;-44
2021/09/29 03:33:10;;;;;;;23.20;15.32;;;;;;;;;;4996457;28;20050;-44
2021/09/29 03:35:37;;;;;;;37.35;13.73;;;;;;;;;;4996263;28;20046;-43
2021/09/29 03:38:04;;;;;;;28.75;15.73;;;;;;;;;;4996450;28;20065;-43
2021/09/29 03:40:30;;;;;;;51.75;16.10;;;;;;;;;;4995138;28;20054;-44
2021/09/29 03:42:56;;;;;;;28.83;17.30;;;;;;;;;;4996067;28;20030;-43
2021/09/29 03:45:22;;;;;;;38.20;16.38;;;;;;;;;;4996170;28;20488;-44
2021/09/29 03:47:48;;;;;;;45.30;16.50;;;;;;;;;;4996092;28;20034;-44
2021/09/29 03:50:14;;;;;;;51.35;18.50;;;;;;;;;;4996297;28;20109;-43
2021/09/29 03:52:41;;;;;;;41.22;18.85;;;;;;;;;;4996007;28;20096;-45
2021/09/29 03:55:12;;;;;;;53.17;23.10;;;;;;;;;;4996070;28;20026;-43
2021/09/29 03:57:39;;;;;;;82.95;23.38;;;;;;;;;;4996003;28;20387;-45
2021/09/29 04:00:06;;;;;;;87.78;34.47;;;;;;;;;;4996008;28;20101;-43
2021/09/29 04:02:32;;;;;;;451.13;53.05;;;;;;;;;;4995643;28;20426;-46
2021/09/29 04:04:58;;;;;;;99.72;40.53;;;;;;;;;;4995582;28;20041;-44
2021/09/29 04:07:25;;;;;;;184.27;45.55;;;;;;;;;;4995521;28;20029;-44
2021/09/29 04:09:51;;;;;;;193.90;44.97;;;;;;;;;;4995533;28;20026;-46
2021/09/29 04:12:17;;;;;;;76.45;34.15;;;;;;;;;;4995521;28;20019;-45
2021/09/29 04:14:43;;;;;;;62.47;28.75;;;;;;;;;;4995530;28;20035;-44
2021/09/29 04:17:10;;;;;;;188.95;34.00;;;;;;;;;;4995633;28;20398;-54
2021/09/29 04:19:36;;;;;;;68.25;25.58;;;;;;;;;;4977980;28;20386;-43
2021/09/29 04:22:02;;;;;;;99.00;27.73;;;;;;;;;;4995411;28;20027;-43
2021/09/29 04:24:31;;;;;;;76.90;26.63;;;;;;;;;;4995358;28;20393;-43
2021/09/29 04:26:57;;;;;;;72.00;26.77;;;;;;;;;;4995505;28;20055;-44
2021/09/29 04:29:24;;;;;;;93.57;28.35;;;;;;;;;;4995598;28;20562;-43
2021/09/29 04:31:50;;;;;;;68.30;25.92;;;;;;;;;;4995401;28;20030;-44
2021/09/29 04:34:16;;;;;;;82.97;26.73;;;;;;;;;;4995006;28;20050;-44
2021/09/29 04:36:42;;;;;;;42.58;24.92;;;;;;;;;;4995135;28;20030;-43
2021/09/29 04:39:08;;;;;;;63.70;26.77;;;;;;;;;;4995194;28;20121;-45
2021/09/29 04:41:34;;;;;;;111.97;26.58;;;;;;;;;;4995018;28;20418;-44
2021/09/29 04:44:00;;;;;;;73.65;23.73;;;;;;;;;;4995351;28;20037;-43
2021/09/29 04:46:26;;;;;;;55.78;23.30;;;;;;;;;;4995151;28;20018;-44
2021/09/29 04:48:52;;;;;;;69.60;24.48;;;;;;;;;;4995229;28;20097;-44
2021/09/29 04:51:18;;;;;;;67.07;24.98;;;;;;;;;;4994845;28;20485;-44
2021/09/29 04:53:44;;;;;;;74.97;24.20;;;;;;;;;;4995001;28;20030;-44
2021/09/29 04:56:11;;;;;;;66.32;23.73;;;;;;;;;;4994809;28;20026;-43
2021/09/29 04:58:37;;;;;;;50.72;26.35;;;;;;;;;;4994752;28;20098;-43
2021/09/29 05:01:03;;;;;;;81.18;26.73;;;;;;;;;;4994856;28;20027;-45
2021/09/29 05:03:31;;;;;;;62.25;26.08;;;;;;;;;;4974277;28;20052;-44
2021/09/29 05:05:57;;;;;;;111.13;30.45;;;;;;;;;;4994550;28;20097;-44
2021/09/29 05:08:28;;;;;;;65.05;29.13;;;;;;;;;;4985932;28;20057;-45
2021/09/29 05:11:04;;;;;;;57.40;27.88;;;;;;;;;;4983821;28;20018;-45
2021/09/29 05:13:31;;;;;;;69.90;31.33;;;;;;;;;;4984294;28;20018;-44
2021/09/29 05:16:01;;;;;;;57.38;29.65;;;;;;;;;;4991727;28;20022;-44
2021/09/29 05:18:28;;;;;;;47.47;29.85;;;;;;;;;;4994353;28;20039;-46
2021/09/29 05:20:54;;;;;;;50.13;30.42;;;;;;;;;;4994423;28;20053;-44
2021/09/29 05:23:20;;;;;;;49.38;31.75;;;;;;;;;;4994231;28;20101;-44
2021/09/29 05:25:46;;;;;;;52.97;32.33;;;;;;;;;;4994633;28;20117;-45
2021/09/29 05:28:13;;;;;;;55.95;33.78;;;;;;;;;;4994307;28;20026;-45
2021/09/29 05:30:39;;;;;;;49.75;33.42;;;;;;;;;;4994259;28;20114;-44
2021/09/29 05:33:05;;;;;;;62.50;38.30;;;;;;;;;;4994242;28;20041;-44
2021/09/29 05:35:32;;;;;;;54.78;35.20;;;;;;;;;;4993890;28;20046;-44
2021/09/29 05:37:58;;;;;;;63.75;37.53;;;;;;;;;;4993897;28;20025;-47
2021/09/29 05:40:24;;;;;;;56.45;36.08;;;;;;;;;;4994077;28;20378;-44
2021/09/29 05:42:50;;;;;;;61.08;37.95;;;;;;;;;;4994033;28;20048;-54
2021/09/29 05:45:16;;;;;;;66.55;41.10;;;;;;;;;;4993946;28;20041;-44
2021/09/29 05:47:42;;;;;;;62.35;38.60;;;;;;;;;;4994059;28;20030;-53
2021/09/29 05:50:08;;;;;;;70.60;42.63;;;;;;;;;;4993965;28;20498;-44
2021/09/29 05:52:35;;;;;;;67.25;40.50;;;;;;;;;;4993912;28;20026;-44
2021/09/29 05:55:01;;;;;;;68.10;40.33;;;;;;;;;;4994017;28;20030;-46
2021/09/29 05:57:27;;;;;;;59.50;36.88;;;;;;;;;;4993721;28;20064;-44
2021/09/29 05:59:53;;;;;;;66.22;40.38;;;;;;;;;;4993883;28;20030;-44
2021/09/29 06:02:19;;;;;;;73.75;41.95;;;;;;;;;;4994279;28;20030;-51
2021/09/29 06:04:47;;;;;;;79.25;45.55;;;;;;;;;;4997120;28;20036;-43
2021/09/29 06:07:15;;;;;;;95.90;48.78;;;;;;;;;;4997944;28;20066;-44
2021/09/29 06:09:42;;;;;;;91.05;48.00;;;;;;;;;;4997923;28;20029;-47
2021/09/29 06:12:08;;;;;;;88.60;50.17;;;;;;;;;;4997760;28;20508;-45
2021/09/29 06:14:35;;;;;;;88.05;48.83;;;;;;;;;;4997827;28;20470;-48
2021/09/29 06:17:11;;;;;;;100.57;50.60;;;;;;;;;;4997659;28;20029;-46
2021/09/29 06:19:38;;;;;;;93.45;49.75;;;;;;;;;;4997716;28;20034;-45
2021/09/29 06:22:07;;;;;;;98.18;49.35;;;;;;;;;;4997533;28;20535;-44
2021/09/29 06:24:36;;;;;;;87.50;48.60;;;;;;;;;;4997761;28;20026;-45
2021/09/29 06:27:02;;;;;;;96.53;50.22;;;;;;;;;;4997706;28;20048;-48
2021/09/29 06:29:28;;;;;;;94.78;49.47;;;;;;;;;;4997635;28;20093;-47
2021/09/29 06:31:56;;;;;;;90.95;48.55;;;;;;;;;;4997678;28;20022;-48
2021/09/29 06:34:22;;;;;;;98.15;49.72;;;;;;;;;;4997476;28;20050;-47
2021/09/29 06:36:48;;;;;;;108.13;51.83;;;;;;;;;;4996112;28;20030;-44
2021/09/29 06:39:14;;;;;;;101.30;50.35;;;;;;;;;;4997169;28;20458;-45
2021/09/29 06:41:45;;;;;;;101.55;49.63;;;;;;;;;;4997670;28;20078;-45
2021/09/29 06:44:13;;;;;;;97.78;50.35;;;;;;;;;;4997243;28;20022;-44
2021/09/29 06:46:39;;;;;;;101.28;52.97;;;;;;;;;;4997391;28;20379;-44
2021/09/29 06:49:05;;;;;;;104.75;53.92;;;;;;;;;;4997345;28;20061;-45
2021/09/29 06:51:31;;;;;;;103.97;55.08;;;;;;;;;;4996867;28;20070;-44
2021/09/29 06:54:00;;;;;;;103.30;56.05;;;;;;;;;;4996930;28;20027;-44
2021/09/29 06:56:26;;;;;;;102.40;55.97;;;;;;;;;;4997020;28;20019;-44
2021/09/29 06:58:52;;;;;;;93.15;52.50;;;;;;;;;;4997057;28;20039;-44
2021/09/29 07:01:21;;;;;;;92.85;55.28;;;;;;;;;;4996842;28;20113;-44
2021/09/29 07:03:50;;;;;;;116.72;59.85;;;;;;;;;;4996720;28;20037;-44
2021/09/29 07:06:16;;;;;;;111.95;58.58;;;;;;;;;;4996996;28;20033;-43
2021/09/29 07:08:43;;;;;;;123.38;63.97;;;;;;;;;;4996671;28;20030;-48
2021/09/29 07:11:09;;;;;;;120.13;60.28;;;;;;;;;;4996626;28;20068;-44
2021/09/29 07:13:35;;;;;;;135.20;65.03;;;;;;;;;;4996768;28;20015;-43
2021/09/29 07:16:02;;;;;;;134.48;67.57;;;;;;;;;;4995210;28;20031;-51
2021/09/29 07:18:31;;;;;;;141.43;68.40;;;;;;;;;;4996737;28;20094;-43
2021/09/29 07:20:57;;;;;;;118.05;59.40;;;;;;;;;;4996485;28;20033;-44
2021/09/29 07:23:23;;;;;;;112.00;57.65;;;;;;;;;;4996358;28;20561;-48
2021/09/29 07:25:49;;;;;;;120.65;57.83;;;;;;;;;;4996663;28;20026;-46
2021/09/29 07:28:15;;;;;;;91.45;49.92;;;;;;;;;;4996435;28;20031;-45
2021/09/29 07:30:45;;;;;;;91.85;48.42;;;;;;;;;;4996345;28;20113;-50
2021/09/29 07:33:11;;;;;;;85.38;47.38;;;;;;;;;;4996283;28;20034;-50
2021/09/29 07:35:41;;;;;;;85.07;46.50;;;;;;;;;;4996407;28;20161;-46
2021/09/29 07:38:10;;;;;;;82.70;45.30;;;;;;;;;;4996069;28;20042;-46
2021/09/29 07:40:36;;;;;;;78.15;42.25;;;;;;;;;;4996379;28;20507;-51
2021/09/29 07:43:03;;;;;;;79.60;42.95;;;;;;;;;;4996201;28;20463;-51
2021/09/29 07:45:29;;;;;;;75.35;42.30;;;;;;;;;;4996194;28;20021;-50
2021/09/29 07:47:56;;;;;;;74.20;41.47;;;;;;;;;;4996097;28;20386;-45
2021/09/29 07:50:22;;;;;;;72.80;41.20;;;;;;;;;;4996093;28;20038;-46
2021/09/29 07:52:49;;;;;;;67.43;41.17;;;;;;;;;;4995972;28;20026;-46
2021/09/29 07:55:15;;;;;;;78.07;41.72;;;;;;;;;;4996097;28;20027;-46
2021/09/29 07:57:43;;;;;;;67.15;40.90;;;;;;;;;;4995811;28;20387;-51
2021/09/29 08:00:12;;;;;;;67.55;40.50;;;;;;;;;;4995768;28;20037;-48
2021/09/29 08:02:38;;;;;;;69.28;40.67;;;;;;;;;;4996118;28;20030;-50
2021/09/29 08:05:04;;;;;;;60.65;37.63;;;;;;;;;;4995888;28;20030;-45
2021/09/29 08:07:31;;;;;;;64.90;36.38;;;;;;;;;;4995578;28;20022;-46
2021/09/29 08:09:57;;;;;;;60.75;36.38;;;;;;;;;;4995801;28;20113;-49
2021/09/29 08:12:23;;;;;;;57.97;37.00;;;;;;;;;;4995591;28;20069;-49
2021/09/29 08:14:49;;;;;;;52.83;34.58;;;;;;;;;;4995710;28;20023;-48
2021/09/29 08:17:16;;;;;;;47.28;32.10;;;;;;;;;;4995379;28;20121;-46
2021/09/29 08:19:42;;;;;;;48.88;32.72;;;;;;;;;;4995690;28;20041;-51
2021/09/29 08:22:10;;;;;;;51.95;32.10;;;;;;;;;;4995242;28;20026;-51
2021/09/29 08:25:11;;;;;;;44.88;31.65;;;;;;;;;;4995791;28;20030;-52
2021/09/29 08:27:29;;;;;;;43.17;29.65;;;;;;;;;;4994395;28;20496;-46
2021/09/29 08:32:58;;;;;;;37.63;25.30;;;;;;;;;;4995303;28;20077;-48
2021/09/29 08:35:32;;;;;;;40.22;27.38;;;;;;;;;;4988678;28;20042;-51
2021/09/29 08:38:02;;;;;;;46.28;32.40;;;;;;;;;;4995072;28;20078;-46
2021/09/29 08:45:33;;;;;;;38.42;26.20;;;;;;;;;;4994977;28;20114;-49
2021/09/29 08:48:19;;;;;;;37.00;25.55;;;;;;;;;;4995185;28;20101;-46
2021/09/29 09:15:51;;;;;;;33.38;21.10;;;;;;;;;;4994861;28;20036;-54
2021/09/29 09:18:17;;;;;;;30.58;20.00;;;;;;;;;;4994286;28;20089;-49
2021/09/29 09:20:52;;;;;;;29.75;21.23;;;;;;;;;;4994407;28;20057;-55
2021/09/29 09:23:18;;;;;;;29.42;20.95;;;;;;;;;;4994293;28;20038;-49
2021/09/29 09:25:45;;;;;;;32.05;18.38;;;;;;;;;;4994651;28;20026;-52
2021/09/29 09:28:28;;;;;;;28.55;17.52;;;;;;;;;;4994555;28;20113;-55
2021/09/29 09:30:58;;;;;;;27.27;19.35;;;;;;;;;;4994448;28;20019;-52
2021/09/29 09:33:28;;;;;;;27.58;18.77;;;;;;;;;;4994138;28;20065;-55
2021/09/29 09:35:54;;;;;;;23.90;17.48;;;;;;;;;;4994187;28;20093;-53
2021/09/29 09:38:22;;;;;;;26.73;19.15;;;;;;;;;;4993476;28;20038;-59
2021/09/29 09:40:55;;;;;;;30.23;19.27;;;;;;;;;;4994042;28;20089;-59
2021/09/29 09:43:25;;;;;;;29.67;19.42;;;;;;;;;;4992636;28;20039;-58
2021/09/29 09:45:52;;;;;;;28.88;19.63;;;;;;;;;;4994360;28;20525;-58
2021/09/29 09:48:23;;;;;;;30.38;19.00;;;;;;;;;;4993958;28;20038;-51
2021/09/29 09:50:55;;;;;;;23.08;18.52;;;;;;;;;;4994248;28;20061;-50
2021/09/29 09:53:21;;;;;;;41.55;26.35;;;;;;;;;;4994014;28;20068;-50
2021/09/29 09:55:48;;;;;;;30.27;23.13;;;;;;;;;;4994363;28;20023;-53
2021/09/29 09:58:14;;;;;;;29.20;20.52;;;;;;;;;;4993916;28;20037;-57
2021/09/29 10:00:40;;;;;;;28.48;21.23;;;;;;;;;;4993989;28;20022;-51
2021/09/29 10:03:06;;;;;;;27.50;19.98;;;;;;;;;;4994038;28;20026;-56
2021/09/29 10:05:33;;;;;;;29.02;19.70;;;;;;;;;;4993926;28;20034;-53
2021/09/29 10:08:02;;;;;;;25.55;18.08;;;;;;;;;;4994001;28;20053;-60
2021/09/29 10:27:06;;;;;;;24.85;16.67;;;;;;;;;;4933949;29;20039;-62
2021/09/29 10:29:39;;;;;;;22.45;17.30;;;;;;;;;;4933934;29;20038;-54
2021/09/29 10:34:58;;;;;;;25.75;16.42;;;;;;;;;;4933530;29;20557;-52
2021/09/29 10:37:50;;;;;;;28.30;17.83;;;;;;;;;;4933836;29;20032;-61
2021/09/29 10:41:03;;;;;;;23.63;16.38;;;;;;;;;;4933790;29;20134;-55
2021/09/29 10:43:20;;;;;;;23.35;15.95;;;;;;;;;;4932695;29;20036;-53
2021/09/29 10:46:01;;;;;;;22.52;15.88;;;;;;;;;;4929747;29;20091;-56
2021/09/29 10:48:43;;;;;;;20.20;16.20;;;;;;;;;;4919281;29;20079;-60
2021/09/29 11:30:24;;;;;;;30.10;13.65;;;;;;;;;;4917027;29;20036;-52
2021/09/29 11:35:31;;;;;;;63.90;32.80;;;;;;;;;;4971463;28;20055;-52
2021/09/29 12:09:30;;;;;;;24.75;14.60;;;;;;;;;;4915385;29;20087;-57
2021/09/29 12:11:28;;;;;;;490.50;316.58;;;;;;;;;;4911731;29;20032;-57
2021/09/29 12:14:01;;;;;;;16.35;10.05;;;;;;;;;;4916711;29;20052;-53
2021/09/29 12:16:27;;;;;;;18.77;10.07;;;;;;;;;;4917069;29;20036;-52
2021/09/29 12:18:56;;;;;;;19.40;12.32;;;;;;;;;;4916889;29;20099;-53
2021/09/29 12:21:34;;;;;;;27.20;14.88;;;;;;;;;;4916656;29;20028;-51
2021/09/29 12:24:00;;;;;;;36.53;17.33;;;;;;;;;;4916400;29;20059;-48
2021/09/29 12:26:29;;;;;;;44.10;20.08;;;;;;;;;;4916544;29;20039;-53
2021/09/29 12:29:10;;;;;;;133.10;107.00;;;;;;;;;;4916411;29;20024;-54
2021/09/29 12:34:27;;;;;;;18.75;9.60;;;;;;;;;;4916010;29;20048;-52
2021/09/29 12:36:53;;;;;;;14.00;10.30;;;;;;;;;;4949322;28;20057;-51
2021/09/29 12:39:21;;;;;;;22.45;9.50;;;;;;;;;;4975704;28;20043;-53
2021/09/29 12:41:48;;;;;;;12.98;9.02;;;;;;;;;;4975609;28;20085;-51
2021/09/29 12:44:16;;;;;;;14.40;8.95;;;;;;;;;;4967877;28;20467;-51
2021/09/29 12:46:45;;;;;;;15.93;11.25;;;;;;;;;;4975606;28;20065;-51
2021/09/29 12:49:22;;;;;;;15.05;10.20;;;;;;;;;;4975700;28;20379;-49
2021/09/29 12:51:59;;;;;;;18.15;11.65;;;;;;;;;;4975727;28;20082;-55
2021/09/29 12:54:25;;;;;;;19.52;12.07;;;;;;;;;;4968390;28;20031;-50
2021/09/29 12:56:51;;;;;;;19.42;13.32;;;;;;;;;;4975023;28;20046;-50
2021/09/29 12:59:17;;;;;;;19.52;13.73;;;;;;;;;;4975183;28;20046;-50
2021/09/29 13:01:43;;;;;;;19.27;13.07;;;;;;;;;;4975392;28;20027;-50
2021/09/29 13:04:09;;;;;;;19.33;13.88;;;;;;;;;;4975147;28;20145;-57
2021/09/29 13:06:41;;;;;;;20.13;13.88;;;;;;;;;;4975509;28;20503;-55
2021/09/29 13:09:10;;;;;;;17.98;12.90;;;;;;;;;;4975250;28;20083;-51
2021/09/29 13:11:38;;;;;;;21.38;13.43;;;;;;;;;;4980159;28;20014;-52
2021/09/29 13:14:07;;;;;;;17.83;12.60;;;;;;;;;;4976559;28;20520;-51
2021/09/29 13:16:33;;;;;;;17.30;12.50;;;;;;;;;;4976653;28;20019;-49
2021/09/29 13:19:08;;;;;;;17.23;12.93;;;;;;;;;;4977069;28;20037;-50
2021/09/29 13:21:49;;;;;;;24.15;13.02;;;;;;;;;;4979508;28;20501;-58
2021/09/29 13:24:27;;;;;;;;;;;;;;;;;;4982031;28;20026;-50
2021/09/29 13:27:07;;;;;;;19.13;12.30;;;;;;;;;;4976670;28;20351;-51
2021/09/29 13:37:34;;;;;;;16.30;11.90;;;;;;;;;;4968314;28;20451;-55
2021/09/29 13:40:00;;;;;;;16.80;12.45;;;;;;;;;;4966975;28;20117;-61
2021/09/29 13:42:27;;;;;;;19.42;11.13;;;;;;;;;;4967258;28;20019;-50
2021/09/29 13:44:53;;;;;;;14.40;11.13;;;;;;;;;;4971522;28;20155;-56
2021/09/29 13:47:20;;;;;;;16.60;11.70;;;;;;;;;;4974655;28;20073;-57
2021/09/29 13:49:46;;;;;;;17.05;10.38;;;;;;;;;;4974514;28;20034;-59
2021/09/29 13:52:18;;;;;;;20.58;10.27;;;;;;;;;;4974232;28;20386;-53
2021/09/29 13:54:45;;;;;;;22.65;11.90;;;;;;;;;;4974760;28;20073;-52
2021/09/29 13:57:17;;;;;;;18.23;10.60;;;;;;;;;;4974654;28;20027;-58
2021/09/29 14:00:00;;;;;;;16.98;10.43;;;;;;;;;;4974317;28;20043;-49
2021/09/29 14:29:48;;;;;;;13.82;7.32;;;;;;;;;;4978327;28;20073;-53
2021/09/29 14:32:18;;;;;;;9.55;5.32;;;;;;;;;;4977890;28;20097;-50
2021/09/29 14:34:44;;;;;;;11.18;6.45;;;;;;;;;;4987991;28;20046;-50
2021/09/29 14:37:11;;;;;;;11.48;7.15;;;;;;;;;;4997418;28;20022;-50
2021/09/29 14:39:38;;;;;;;6.97;5.45;;;;;;;;;;4997289;28;20074;-51
2021/09/29 14:42:04;;;;;;;8.38;5.68;;;;;;;;;;4997209;28;20022;-62
2021/09/29 14:44:30;;;;;;;16.92;6.10;;;;;;;;;;4996947;28;20097;-52
2021/09/29 14:46:57;;;;;;;9.45;5.20;;;;;;;;;;4997110;28;20049;-49
2021/09/29 14:49:23;;;;;;;9.43;5.05;;;;;;;;;;4997005;28;20030;-50
2021/09/29 14:51:49;;;;;;;10.95;4.88;;;;;;;;;;4997176;28;20030;-50
2021/09/29 14:54:15;;;;;;;6.63;5.28;;;;;;;;;;4996898;28;20026;-50
2021/09/29 14:56:43;;;;;;;17.50;7.72;;;;;;;;;;4997077;28;20029;-50
2021/09/29 14:59:13;;;;;;;13.43;6.93;;;;;;;;;;4996911;28;20061;-49
2021/09/29 15:01:40;;;;;;;5.90;4.63;;;;;;;;;;4997127;28;20026;-51
2021/09/29 15:04:06;;;;;;;14.02;6.95;;;;;;;;;;4996944;28;20395;-51
2021/09/29 15:06:32;;;;;;;7.93;4.43;;;;;;;;;;4996620;28;20030;-50
2021/09/29 15:08:58;;;;;;;7.07;3.92;;;;;;;;;;4996644;28;20064;-57
2021/09/29 15:11:24;;;;;;;7.13;4.80;;;;;;;;;;4996631;28;20029;-58
2021/09/29 15:13:54;;;;;;;11.82;4.45;;;;;;;;;;4996555;28;20022;-49
2021/09/29 15:51:36;;;;;;;6.82;2.50;;;;;;;;;;4910461;29;20028;-51
2021/09/29 15:54:15;;;;;;;7.35;2.35;;;;;;;;;;4907943;29;20028;-50
2021/09/29 15:59:15;;;;;;;3.60;2.17;;;;;;;;;;4906375;29;20147;-51
2021/09/29 16:01:47;;;;;;;5.38;2.42;;;;;;;;;;4905766;29;20466;-51
2021/09/29 16:35:54;;;;;;;14.65;3.10;;;;;;;;;;4877955;29;20057;-48
2021/09/29 16:38:20;;;;;;;6.85;3.30;;;;;;;;;;4877832;29;20166;-51
2021/09/29 16:40:46;;;;;;;12.68;3.92;;;;;;;;;;4878954;29;20051;-48
2021/09/29 16:43:14;;;;;;;10.65;4.60;;;;;;;;;;4932350;28;20042;-50
2021/09/29 16:45:40;;;;;;;7.53;3.33;;;;;;;;;;4977921;28;20022;-48
2021/09/29 16:48:12;;;;;;;8.75;3.55;;;;;;;;;;4976446;28;20025;-49
2021/09/29 16:50:57;;;;;;;16.35;4.40;;;;;;;;;;4977791;28;20021;-48
2021/09/29 16:53:26;;;;;;;9.60;3.00;;;;;;;;;;4977573;28;20439;-49
2021/09/29 16:55:57;;;;;;;8.27;3.42;;;;;;;;;;4977625;28;20030;-47
2021/09/29 17:01:16;;;;;;;10.05;2.00;;;;;;;;;;4977521;28;20216;-48
2021/09/29 17:03:42;;;;;;;12.27;2.63;;;;;;;;;;4977058;28;20046;-47
2021/09/29 17:06:09;;;;;;;18.70;2.65;;;;;;;;;;4977722;28;20061;-48
2021/09/29 17:08:36;;;;;;;15.48;2.95;;;;;;;;;;4978029;28;20089;-48
2021/09/29 17:11:03;;;;;;;12.60;2.78;;;;;;;;;;4977417;28;20125;-51
2021/09/29 17:13:51;;;;;;;13.95;5.95;;;;;;;;;;4976905;28;20022;-47
2021/09/29 17:16:19;;;;;;;15.60;3.08;;;;;;;;;;4975414;28;20033;-53
2021/09/29 17:18:46;;;;;;;19.10;4.85;;;;;;;;;;4977212;28;20030;-48
2021/09/29 17:21:22;;;;;;;16.90;4.93;;;;;;;;;;4977181;28;20039;-47
2021/09/29 17:23:49;;;;;;;14.68;3.72;;;;;;;;;;4983314;28;20026;-56
2021/09/29 17:26:15;;;;;;;15.10;2.83;;;;;;;;;;4994034;28;20030;-48
2021/09/29 17:28:48;;;;;;;10.75;2.92;;;;;;;;;;4994027;28;20030;-47
2021/09/29 17:31:22;;;;;;;13.82;3.95;;;;;;;;;;4994022;28;20023;-48
2021/09/29 17:33:56;;;;;;;14.77;3.72;;;;;;;;;;4991137;28;20054;-47
2021/09/29 17:52:34;;;;;;;8.90;4.35;;;;;;;;;;4971840;28;20184;-47
2021/09/29 17:55:00;;;;;;;9.43;4.03;;;;;;;;;;4964101;28;20015;-47
2021/09/29 17:57:26;;;;;;;8.55;4.10;;;;;;;;;;4963566;28;20023;-48
2021/09/29 17:59:53;;;;;;;9.88;4.53;;;;;;;;;;4964321;28;20041;-46
2021/09/29 18:02:32;;;;;;;8.85;4.10;;;;;;;;;;4963869;28;20625;-45
2021/09/29 18:04:58;;;;;;;7.82;4.63;;;;;;;;;;4965121;28;20082;-59
2021/09/29 18:07:27;;;;;;;12.40;4.53;;;;;;;;;;4964803;28;20031;-48
2021/09/29 18:09:53;;;;;;;9.48;4.80;;;;;;;;;;4963045;28;20476;-48
2021/09/29 18:12:20;;;;;;;11.07;4.13;;;;;;;;;;4960511;28;20505;-47
2021/09/29 18:14:46;;;;;;;11.23;4.80;;;;;;;;;;4957035;28;20023;-47
2021/09/29 18:17:13;;;;;;;9.35;4.15;;;;;;;;;;4957572;28;20483;-50
2021/09/29 18:19:39;;;;;;;8.30;4.65;;;;;;;;;;4957117;28;20042;-46
2021/09/29 18:22:06;;;;;;;9.85;4.53;;;;;;;;;;4957649;28;20030;-50
2021/09/29 18:24:32;;;;;;;6.13;4.10;;;;;;;;;;4957494;28;20030;-46
2021/09/29 18:26:58;;;;;;;9.95;4.80;;;;;;;;;;4957216;28;20041;-46
2021/09/29 18:29:25;;;;;;;13.70;4.93;;;;;;;;;;4956450;28;20030;-48
2021/09/29 18:31:52;;;;;;;6.45;4.90;;;;;;;;;;4956969;28;20030;-46
2021/09/29 18:34:26;;;;;;;6.25;4.38;;;;;;;;;;4961052;28;20136;-47
2021/09/29 18:36:56;;;;;;;8.90;5.25;;;;;;;;;;4975659;28;20040;-48
2021/09/29 18:39:23;;;;;;;11.45;5.05;;;;;;;;;;4976105;28;20042;-53
2021/09/29 18:41:49;;;;;;;6.38;4.60;;;;;;;;;;4976016;28;20136;-53